Time;durP1;ratioP1;P1;durP2;ratioP2;P2;SDS_P1;SDS_P2;PMS_P1;PMS_P2;Temp;Humidity;BMP_temperature;BMP_pressure;BME280_temperature;BME280_humidity;BME280_pressure;Samples;Min_cycle;Max_cycle;Signal;HPM_P1;HPM_P2
2024/02/17 00:02:22;;;;;;;7.40;6.00;;;13.40;82.60;;;;;;4984499;28;20034;-61
2024/02/17 00:04:47;;;;;;;8.63;6.45;;;13.40;82.70;;;;;;4981101;28;20114;-61
2024/02/17 00:07:13;;;;;;;7.95;5.97;;;13.30;82.90;;;;;;4982225;28;20058;-63
2024/02/17 00:09:39;;;;;;;10.05;6.15;;;13.30;83.10;;;;;;4985629;28;20032;-61
2024/02/17 00:12:06;;;;;;;11.02;6.57;;;13.20;83.20;;;;;;4981128;28;20546;-61
2024/02/17 00:14:34;;;;;;;9.27;5.15;;;13.30;83.40;;;;;;4982819;28;20345;-62
2024/02/17 00:17:03;;;;;;;7.93;5.95;;;13.20;83.40;;;;;;4988282;28;20048;-62
2024/02/17 00:19:29;;;;;;;7.40;5.78;;;13.20;83.60;;;;;;4980137;28;20057;-61
2024/02/17 00:21:55;;;;;;;8.48;5.68;;;13.20;83.80;;;;;;4987332;28;20042;-63
2024/02/17 00:24:21;;;;;;;9.23;5.90;;;13.20;83.90;;;;;;4985546;28;20480;-61
2024/02/17 00:26:46;;;;;;;7.35;5.93;;;13.20;84.10;;;;;;4980725;28;20070;-62
2024/02/17 00:29:12;;;;;;;8.25;6.20;;;13.20;84.20;;;;;;4985379;28;20030;-63
2024/02/17 00:31:37;;;;;;;8.25;5.65;;;13.20;84.30;;;;;;4978855;28;20522;-63
2024/02/17 00:34:04;;;;;;;7.55;5.60;;;13.20;84.50;;;;;;4983321;28;20027;-61
2024/02/17 00:36:29;;;;;;;8.40;5.93;;;13.20;84.60;;;;;;4979373;28;20034;-63
2024/02/17 00:38:55;;;;;;;11.90;6.13;;;13.20;84.80;;;;;;4981928;28;20462;-62
2024/02/17 00:41:21;;;;;;;7.65;5.75;;;13.20;85.00;;;;;;4983884;28;20436;-62
2024/02/17 00:43:46;;;;;;;12.15;6.40;;;13.20;85.20;;;;;;4978270;28;20038;-61
2024/02/17 00:46:12;;;;;;;7.50;5.97;;;13.10;85.20;;;;;;4984397;28;20039;-62
2024/02/17 00:48:37;;;;;;;8.50;6.03;;;13.20;85.30;;;;;;4978706;28;20101;-63
2024/02/17 00:51:03;;;;;;;9.48;5.78;;;13.20;85.50;;;;;;4984449;28;20027;-62
2024/02/17 00:53:29;;;;;;;8.90;5.75;;;13.10;85.50;;;;;;4982750;28;20026;-61
2024/02/17 00:55:54;;;;;;;6.18;5.00;;;13.10;85.50;;;;;;4984126;28;20035;-62
2024/02/17 00:58:20;;;;;;;9.35;5.65;;;13.10;85.50;;;;;;4984988;28;20026;-61
2024/02/17 01:00:46;;;;;;;7.03;5.25;;;13.10;85.40;;;;;;4983006;28;20049;-61
2024/02/17 01:03:12;;;;;;;8.32;5.82;;;13.10;86.50;;;;;;4982350;28;20104;-62
2024/02/17 01:05:38;;;;;;;8.68;5.80;;;13.20;85.90;;;;;;4981676;28;20049;-62
2024/02/17 01:08:05;;;;;;;7.68;5.00;;;13.10;85.70;;;;;;4983327;28;20034;-63
2024/02/17 01:10:31;;;;;;;8.43;5.00;;;13.20;85.80;;;;;;4982057;28;20125;-62
2024/02/17 01:12:57;;;;;;;6.88;5.10;;;13.20;85.50;;;;;;4980418;28;20228;-61
2024/02/17 01:15:22;;;;;;;8.70;5.07;;;13.20;85.50;;;;;;4986343;28;20042;-63
2024/02/17 01:17:48;;;;;;;7.15;5.13;;;13.20;85.60;;;;;;4985239;28;20045;-63
2024/02/17 01:20:14;;;;;;;5.93;5.22;;;13.20;85.50;;;;;;4984692;28;20027;-62
2024/02/17 01:22:40;;;;;;;10.50;6.03;;;13.20;85.50;;;;;;4980678;28;20023;-62
2024/02/17 01:25:07;;;;;;;9.10;6.75;;;13.20;85.60;;;;;;4986928;28;20242;-62
2024/02/17 01:27:32;;;;;;;11.05;6.07;;;13.20;85.70;;;;;;4978744;28;20026;-61
2024/02/17 01:29:58;;;;;;;6.65;5.57;;;13.20;85.70;;;;;;4980982;28;20054;-62
2024/02/17 01:32:24;;;;;;;7.90;5.60;;;13.20;85.70;;;;;;4983079;28;20031;-62
2024/02/17 01:34:49;;;;;;;9.15;5.60;;;13.20;85.70;;;;;;4985988;28;20410;-60
2024/02/17 01:37:15;;;;;;;8.13;5.43;;;13.20;85.80;;;;;;4987046;28;20498;-60
2024/02/17 01:39:41;;;;;;;7.30;5.50;;;13.30;85.90;;;;;;4981189;28;20066;-63
2024/02/17 01:42:06;;;;;;;6.55;5.47;;;13.20;85.70;;;;;;4980183;28;20065;-63
2024/02/17 01:44:32;;;;;;;6.75;5.53;;;13.20;85.70;;;;;;4976627;28;20475;-62
2024/02/17 01:46:58;;;;;;;7.45;5.20;;;13.20;85.90;;;;;;4984304;28;20061;-61
2024/02/17 01:49:24;;;;;;;8.68;5.70;;;13.20;86.00;;;;;;4980470;28;20030;-62
2024/02/17 01:51:49;;;;;;;10.85;6.25;;;13.20;86.00;;;;;;4979501;28;20047;-62
2024/02/17 01:54:17;;;;;;;8.85;5.85;;;13.20;86.10;;;;;;4984797;28;20121;-61
2024/02/17 01:56:44;;;;;;;9.30;6.03;;;13.20;86.20;;;;;;4981428;28;20521;-63
2024/02/17 01:59:10;;;;;;;9.18;5.90;;;13.20;86.40;;;;;;4981191;28;20049;-62
2024/02/17 02:01:37;;;;;;;7.63;5.80;;;13.20;86.50;;;;;;4988506;28;20034;-63
2024/02/17 02:04:04;;;;;;;9.48;5.95;;;13.20;86.60;;;;;;4984135;28;20035;-61
2024/02/17 02:06:30;;;;;;;9.15;6.10;;;13.20;86.60;;;;;;4981104;28;20069;-62
2024/02/17 02:08:56;;;;;;;8.13;6.10;;;13.30;86.80;;;;;;4984996;28;20062;-62
2024/02/17 02:11:22;;;;;;;7.80;5.72;;;13.20;86.70;;;;;;4980119;28;20039;-61
2024/02/17 02:13:48;;;;;;;8.02;5.95;;;13.20;86.70;;;;;;4983299;28;20418;-62
2024/02/17 02:16:15;;;;;;;7.68;5.63;;;13.20;86.70;;;;;;4986674;28;20038;-63
2024/02/17 02:18:41;;;;;;;9.38;5.43;;;13.20;86.70;;;;;;4982674;28;20038;-62
2024/02/17 02:21:06;;;;;;;6.68;5.63;;;13.20;86.70;;;;;;4985497;28;20038;-63
2024/02/17 02:23:34;;;;;;;7.32;5.57;;;13.20;86.70;;;;;;4981993;28;20479;-60
2024/02/17 02:26:00;;;;;;;8.15;5.22;;;13.20;86.60;;;;;;4980746;28;20030;-61
2024/02/17 02:28:26;;;;;;;8.32;5.20;;;13.20;86.60;;;;;;4981456;28;20172;-60
2024/02/17 02:30:54;;;;;;;6.18;5.30;;;13.20;86.60;;;;;;4986545;28;20128;-61
2024/02/17 02:33:20;;;;;;;11.13;4.95;;;13.20;86.60;;;;;;4986867;28;20042;-62
2024/02/17 02:35:45;;;;;;;6.30;4.90;;;13.20;86.70;;;;;;4977252;28;20043;-62
2024/02/17 02:38:11;;;;;;;5.63;4.35;;;13.20;86.70;;;;;;4981072;28;20053;-61
2024/02/17 02:40:37;;;;;;;7.60;4.53;;;13.20;86.70;;;;;;4976343;28;20058;-62
2024/02/17 02:43:04;;;;;;;7.32;4.80;;;13.20;86.80;;;;;;4986029;28;20026;-61
2024/02/17 02:45:30;;;;;;;6.68;4.93;;;13.20;86.80;;;;;;4986840;28;20042;-62
2024/02/17 02:47:56;;;;;;;6.78;4.40;;;13.20;86.80;;;;;;4985411;28;20069;-60
2024/02/17 02:50:22;;;;;;;6.20;4.45;;;13.20;86.90;;;;;;4984621;28;20039;-62
2024/02/17 02:52:47;;;;;;;9.05;4.45;;;13.10;86.80;;;;;;4981189;28;20047;-63
2024/02/17 02:55:13;;;;;;;6.30;4.22;;;13.10;86.90;;;;;;4980450;28;20522;-62
2024/02/17 02:57:39;;;;;;;5.82;4.25;;;13.10;86.80;;;;;;4984548;28;20045;-61
2024/02/17 03:00:06;;;;;;;5.03;4.25;;;13.10;86.80;;;;;;4985986;28;20033;-63
2024/02/17 03:02:31;;;;;;;6.45;4.35;;;13.10;86.90;;;;;;4982795;28;20026;-61
2024/02/17 03:04:57;;;;;;;7.13;4.28;;;13.10;86.90;;;;;;4985713;28;20037;-62
2024/02/17 03:07:23;;;;;;;5.55;4.55;;;13.10;86.90;;;;;;4984334;28;20453;-63
2024/02/17 03:09:48;;;;;;;6.15;4.25;;;13.10;86.90;;;;;;4989783;28;20030;-61
2024/02/17 03:12:14;;;;;;;6.70;4.30;;;13.10;86.90;;;;;;4987245;28;20031;-63
2024/02/17 03:14:40;;;;;;;6.18;4.05;;;13.10;86.90;;;;;;4984764;28;20066;-62
2024/02/17 03:17:05;;;;;;;6.93;4.03;;;13.10;86.90;;;;;;4982609;28;20039;-60
2024/02/17 03:19:31;;;;;;;5.30;3.85;;;13.10;86.90;;;;;;4983408;28;20031;-61
2024/02/17 03:21:57;;;;;;;6.90;3.75;;;13.10;86.90;;;;;;4985961;28;20039;-63
2024/02/17 03:24:22;;;;;;;5.35;3.70;;;13.10;86.90;;;;;;4985085;28;20038;-61
2024/02/17 03:26:49;;;;;;;4.90;3.55;;;13.10;86.90;;;;;;4984550;28;20489;-59
2024/02/17 03:29:15;;;;;;;4.80;3.97;;;13.10;87.00;;;;;;4990324;28;20074;-61
2024/02/17 03:31:41;;;;;;;4.55;3.70;;;13.10;87.10;;;;;;4986780;28;20046;-62
2024/02/17 03:34:06;;;;;;;4.25;3.60;;;13.10;87.00;;;;;;4984638;28;20506;-62
2024/02/17 03:36:35;;;;;;;5.38;4.00;;;13.00;86.80;;;;;;4983385;28;20510;-63
2024/02/17 03:39:08;;;;;;;5.60;4.03;;;13.10;87.00;;;;;;4982361;28;20035;-62
2024/02/17 03:41:34;;;;;;;4.82;4.10;;;13.10;86.90;;;;;;4988662;28;20080;-63
2024/02/17 03:43:59;;;;;;;6.28;4.50;;;13.10;87.00;;;;;;4984342;28;20031;-63
2024/02/17 03:46:25;;;;;;;6.53;4.32;;;13.10;87.00;;;;;;4980430;28;20034;-62
2024/02/17 03:48:51;;;;;;;4.78;4.35;;;13.10;87.10;;;;;;4977540;28;20042;-63
2024/02/17 03:51:16;;;;;;;6.25;4.70;;;13.10;87.10;;;;;;4983042;28;20034;-63
2024/02/17 03:53:42;;;;;;;5.40;4.45;;;13.10;86.90;;;;;;4983276;28;20038;-62
2024/02/17 03:56:07;;;;;;;4.90;4.38;;;13.10;86.90;;;;;;4983724;28;20514;-61
2024/02/17 03:58:33;;;;;;;7.57;4.57;;;13.10;86.90;;;;;;4985406;28;20034;-62
2024/02/17 04:00:58;;;;;;;5.05;4.30;;;13.10;86.90;;;;;;4982257;28;20037;-61
2024/02/17 04:03:24;;;;;;;6.85;4.53;;;13.10;86.80;;;;;;4979075;28;20069;-62
2024/02/17 04:05:50;;;;;;;6.28;4.65;;;13.10;86.70;;;;;;4984474;28;20542;-62
2024/02/17 04:08:15;;;;;;;5.03;4.50;;;13.10;86.80;;;;;;4985709;28;20112;-63
2024/02/17 04:10:42;;;;;;;5.80;4.35;;;13.00;86.70;;;;;;4982476;28;20507;-61
2024/02/17 04:13:07;;;;;;;5.82;4.50;;;13.00;86.80;;;;;;4988359;28;20237;-63
2024/02/17 04:15:33;;;;;;;6.10;4.38;;;13.00;86.90;;;;;;4983207;28;20125;-61
2024/02/17 04:18:00;;;;;;;4.80;4.13;;;13.00;86.90;;;;;;4985090;28;20038;-62
2024/02/17 04:20:25;;;;;;;8.23;4.30;;;13.00;86.90;;;;;;4983296;28;20093;-62
2024/02/17 04:22:51;;;;;;;6.20;4.10;;;13.00;87.10;;;;;;4980114;28;20537;-63
2024/02/17 04:25:17;;;;;;;5.28;4.20;;;13.00;87.30;;;;;;4988304;28;20034;-64
2024/02/17 04:27:43;;;;;;;5.60;4.10;;;13.00;87.30;;;;;;4983566;28;20030;-63
2024/02/17 04:30:08;;;;;;;8.57;5.45;;;13.00;87.40;;;;;;4984511;28;20102;-63
2024/02/17 04:32:34;;;;;;;11.13;6.30;;;13.00;87.40;;;;;;4980712;28;20042;-63
2024/02/17 04:35:00;;;;;;;7.28;5.35;;;13.00;87.40;;;;;;4984342;28;20042;-60
2024/02/17 04:37:25;;;;;;;8.15;5.30;;;13.00;87.50;;;;;;4987874;28;20038;-62
2024/02/17 04:39:51;;;;;;;6.97;5.55;;;13.00;87.60;;;;;;4982868;28;20588;-61
2024/02/17 04:42:16;;;;;;;6.25;5.15;;;13.00;87.60;;;;;;4985075;28;20121;-61
2024/02/17 04:44:42;;;;;;;6.05;5.13;;;12.90;87.60;;;;;;4976630;28;20422;-62
2024/02/17 04:47:08;;;;;;;6.60;5.22;;;12.90;87.60;;;;;;4983580;28;20112;-62
2024/02/17 04:49:34;;;;;;;8.07;5.03;;;12.90;87.80;;;;;;4984596;28;20604;-61
2024/02/17 04:52:00;;;;;;;6.97;4.88;;;12.90;87.90;;;;;;4982019;28;20043;-63
2024/02/17 04:54:25;;;;;;;5.35;4.30;;;12.90;87.90;;;;;;4984680;28;20029;-63
2024/02/17 04:56:51;;;;;;;7.25;4.32;;;12.90;87.90;;;;;;4979745;28;20047;-63
2024/02/17 04:59:16;;;;;;;4.50;4.10;;;12.90;88.00;;;;;;4983044;28;20417;-63
2024/02/17 05:01:44;;;;;;;5.18;4.00;;;12.90;88.00;;;;;;4984326;28;20057;-62
2024/02/17 05:04:10;;;;;;;6.85;4.10;;;12.90;88.10;;;;;;4982622;28;20389;-63
2024/02/17 05:06:36;;;;;;;5.72;4.25;;;12.90;88.10;;;;;;4981038;28;20030;-63
2024/02/17 05:09:01;;;;;;;5.80;4.68;;;12.90;88.10;;;;;;4982189;28;20572;-63
2024/02/17 05:11:28;;;;;;;6.68;3.90;;;12.90;88.10;;;;;;4978393;28;20151;-63
2024/02/17 05:13:53;;;;;;;7.32;4.53;;;12.90;88.30;;;;;;4980067;28;20046;-60
2024/02/17 05:16:19;;;;;;;5.97;4.10;;;12.90;89.20;;;;;;4983268;28;20041;-63
2024/02/17 05:18:44;;;;;;;5.78;4.00;;;12.90;88.50;;;;;;4982640;28;20416;-62
2024/02/17 05:21:10;;;;;;;5.28;4.03;;;12.90;88.40;;;;;;4984807;28;20038;-62
2024/02/17 05:23:36;;;;;;;4.40;4.00;;;12.80;88.30;;;;;;4984530;28;20441;-61
2024/02/17 05:26:01;;;;;;;5.55;4.35;;;12.90;88.30;;;;;;4984701;28;20066;-61
2024/02/17 05:28:27;;;;;;;5.68;4.20;;;12.80;88.30;;;;;;4978597;28;20478;-62
2024/02/17 05:30:54;;;;;;;7.68;4.60;;;12.90;88.50;;;;;;4984764;28;20035;-61
2024/02/17 05:33:20;;;;;;;5.53;4.45;;;12.90;88.60;;;;;;4982246;28;20038;-60
2024/02/17 05:35:46;;;;;;;5.40;4.30;;;12.80;88.60;;;;;;4976690;28;20113;-63
2024/02/17 05:38:12;;;;;;;7.38;4.47;;;12.90;88.80;;;;;;4980435;28;20046;-63
2024/02/17 05:40:38;;;;;;;5.57;4.40;;;12.90;88.80;;;;;;4978775;28;20100;-63
2024/02/17 05:43:04;;;;;;;6.80;4.53;;;12.90;88.90;;;;;;4984527;28;20065;-61
2024/02/17 05:45:30;;;;;;;6.22;4.18;;;12.80;89.00;;;;;;4980199;28;20033;-64
2024/02/17 05:47:55;;;;;;;5.93;4.07;;;12.80;89.20;;;;;;4978320;28;20126;-63
2024/02/17 05:50:21;;;;;;;6.90;4.68;;;12.80;89.30;;;;;;4987324;28;20245;-61
2024/02/17 05:52:49;;;;;;;4.88;4.38;;;12.70;89.40;;;;;;4978370;28;20035;-63
2024/02/17 05:55:16;;;;;;;6.40;4.60;;;12.70;89.50;;;;;;4982448;28;20038;-60
2024/02/17 05:57:41;;;;;;;6.30;4.28;;;12.70;89.70;;;;;;4977750;28;20578;-62
2024/02/17 06:00:08;;;;;;;5.13;4.25;;;12.70;89.90;;;;;;4976611;28;20125;-63
2024/02/17 06:02:34;;;;;;;5.20;4.15;;;12.60;90.00;;;;;;4980388;28;20058;-62
2024/02/17 06:05:02;;;;;;;5.57;4.47;;;12.60;90.10;;;;;;4986025;28;20026;-62
2024/02/17 06:07:28;;;;;;;5.32;4.63;;;12.60;90.10;;;;;;4981958;28;20121;-62
2024/02/17 06:09:54;;;;;;;7.57;4.20;;;12.50;90.20;;;;;;4984515;28;20114;-61
2024/02/17 06:12:20;;;;;;;6.28;4.30;;;12.50;90.30;;;;;;4980605;28;20034;-61
2024/02/17 06:14:46;;;;;;;5.57;4.35;;;12.50;90.40;;;;;;4978455;28;20470;-62
2024/02/17 06:17:22;;;;;;;7.53;4.70;;;12.40;90.40;;;;;;4990650;28;20062;-62
2024/02/17 06:22:34;;;;;;;5.70;3.47;;;12.40;90.50;;;;;;4983446;28;20541;-63
2024/02/17 06:25:00;;;;;;;4.38;3.85;;;12.30;90.50;;;;;;4986281;28;20041;-61
2024/02/17 06:27:26;;;;;;;5.63;3.53;;;12.40;90.60;;;;;;4982777;28;20057;-63
2024/02/17 06:29:51;;;;;;;4.95;3.22;;;12.30;90.60;;;;;;4991233;28;20034;-61
2024/02/17 06:32:17;;;;;;;4.03;2.83;;;12.30;90.60;;;;;;4988949;28;20100;-62
2024/02/17 06:34:42;;;;;;;3.80;2.97;;;12.30;90.60;;;;;;4981845;28;20069;-63
2024/02/17 06:37:08;;;;;;;2.50;2.30;;;12.30;90.70;;;;;;4986647;28;20390;-63
2024/02/17 06:39:34;;;;;;;2.10;1.90;;;12.30;90.60;;;;;;4984894;28;20057;-61
2024/02/17 06:42:00;;;;;;;1.90;1.67;;;12.20;90.60;;;;;;4988535;28;20054;-63
2024/02/17 06:44:27;;;;;;;1.40;1.30;;;12.20;90.50;;;;;;4983607;28;20077;-63
2024/02/17 06:46:53;;;;;;;1.73;1.63;;;12.10;90.50;;;;;;4986792;28;20056;-63
2024/02/17 06:49:19;;;;;;;1.65;1.55;;;12.10;90.50;;;;;;4987615;28;20031;-63
2024/02/17 06:51:45;;;;;;;2.10;1.90;;;12.00;90.50;;;;;;4963466;28;20042;-63
2024/02/17 06:54:11;;;;;;;1.67;1.58;;;12.00;90.50;;;;;;4982865;28;20038;-62
2024/02/17 06:56:36;;;;;;;2.28;1.90;;;11.90;90.50;;;;;;4981545;28;20410;-63
2024/02/17 06:59:02;;;;;;;1.83;1.73;;;11.90;90.60;;;;;;4985663;28;20409;-63
2024/02/17 07:01:27;;;;;;;1.67;1.58;;;11.90;90.70;;;;;;4983898;28;20639;-62
2024/02/17 07:03:53;;;;;;;2.15;1.60;;;11.80;90.70;;;;;;4982926;28;20045;-63
2024/02/17 07:06:19;;;;;;;1.52;1.42;;;11.80;90.80;;;;;;4979682;28;20034;-64
2024/02/17 07:08:48;;;;;;;1.92;1.70;;;11.80;90.80;;;;;;4983002;28;20062;-62
2024/02/17 07:11:17;;;;;;;2.08;1.80;;;11.70;90.80;;;;;;4982201;28;20038;-63
2024/02/17 07:13:43;;;;;;;3.15;1.70;;;11.70;90.90;;;;;;4983805;28;20046;-61
2024/02/17 07:16:09;;;;;;;1.80;1.70;;;11.70;90.90;;;;;;4980692;28;20526;-61
2024/02/17 07:18:37;;;;;;;2.60;2.10;;;11.70;91.00;;;;;;4982711;28;20037;-63
2024/02/17 07:21:03;;;;;;;2.55;1.75;;;11.70;91.40;;;;;;4984759;28;20449;-63
2024/02/17 07:23:30;;;;;;;1.90;1.80;;;11.70;91.00;;;;;;4987358;28;20038;-61
2024/02/17 07:25:59;;;;;;;1.77;1.67;;;11.70;91.00;;;;;;4983247;28;20096;-61
2024/02/17 07:28:25;;;;;;;2.15;1.88;;;11.70;91.10;;;;;;4985876;28;20030;-61
2024/02/17 07:30:51;;;;;;;2.35;1.88;;;11.70;91.10;;;;;;4981683;28;23792;-63
2024/02/17 07:33:16;;;;;;;1.70;1.60;;;11.70;91.00;;;;;;4981699;28;20038;-63
2024/02/17 07:35:44;;;;;;;1.88;1.67;;;11.70;91.10;;;;;;4982524;28;20497;-63
2024/02/17 07:38:11;;;;;;;2.15;1.92;;;11.60;91.00;;;;;;4986577;28;20743;-63
2024/02/17 07:40:37;;;;;;;2.25;1.60;;;11.60;91.10;;;;;;4980659;28;20550;-62
2024/02/17 07:43:04;;;;;;;4.25;2.40;;;11.60;91.10;;;;;;4984469;28;20034;-62
2024/02/17 07:45:30;;;;;;;4.55;3.00;;;11.60;91.00;;;;;;4984241;28;20038;-63
2024/02/17 07:47:56;;;;;;;3.42;2.50;;;11.60;91.00;;;;;;4985337;28;20069;-63
2024/02/17 07:50:21;;;;;;;3.45;2.67;;;11.60;91.00;;;;;;4984072;28;20490;-63
2024/02/17 07:52:47;;;;;;;2.63;2.30;;;11.70;91.10;;;;;;4980271;28;20026;-62
2024/02/17 07:55:12;;;;;;;2.50;2.28;;;11.60;91.10;;;;;;4983474;28;20038;-63
2024/02/17 07:57:38;;;;;;;2.65;2.10;;;11.70;91.10;;;;;;4985827;28;20046;-63
2024/02/17 08:00:04;;;;;;;2.25;2.03;;;11.70;91.20;;;;;;4983349;28;20502;-61
2024/02/17 08:02:30;;;;;;;4.03;2.80;;;11.60;91.10;;;;;;4980084;28;20109;-64
2024/02/17 08:04:56;;;;;;;3.40;2.95;;;11.70;91.20;;;;;;4975387;28;20568;-62
2024/02/17 08:07:22;;;;;;;4.30;2.63;;;11.60;91.10;;;;;;4977441;28;20034;-63
2024/02/17 08:09:48;;;;;;;7.53;5.95;;;11.70;91.20;;;;;;4976010;28;20100;-61
2024/02/17 08:12:14;;;;;;;6.15;4.93;;;11.70;91.20;;;;;;4978056;28;20126;-63
2024/02/17 08:14:40;;;;;;;4.90;4.25;;;11.70;91.20;;;;;;4976840;28;20129;-64
2024/02/17 08:17:06;;;;;;;5.20;4.25;;;11.70;91.20;;;;;;4979972;28;20057;-64
2024/02/17 08:19:32;;;;;;;4.32;3.92;;;11.70;91.20;;;;;;4975764;28;20042;-64
2024/02/17 08:21:58;;;;;;;4.47;3.00;;;11.80;91.20;;;;;;4976372;28;20447;-62
2024/02/17 08:24:23;;;;;;;2.58;2.38;;;11.80;91.20;;;;;;4981536;28;20347;-62
2024/02/17 08:26:49;;;;;;;2.90;2.70;;;11.80;91.20;;;;;;4983732;28;20118;-63
2024/02/17 08:29:15;;;;;;;3.05;2.58;;;11.80;91.10;;;;;;4979498;28;20034;-61
2024/02/17 08:31:48;;;;;;;2.75;2.50;;;11.90;91.10;;;;;;4976958;28;20043;-63
2024/02/17 08:34:13;;;;;;;2.78;2.58;;;11.90;91.10;;;;;;4986415;28;20502;-61
2024/02/17 08:36:39;;;;;;;2.67;2.47;;;11.90;91.00;;;;;;4969662;28;20047;-63
2024/02/17 08:39:04;;;;;;;3.08;2.70;;;11.90;91.00;;;;;;4977366;28;20085;-62
2024/02/17 08:41:30;;;;;;;2.80;2.60;;;11.90;91.00;;;;;;4989558;28;20034;-63
2024/02/17 08:43:56;;;;;;;2.78;2.58;;;11.90;90.90;;;;;;4988160;28;20030;-64
2024/02/17 08:46:21;;;;;;;2.92;2.60;;;11.90;90.90;;;;;;4988504;28;20425;-63
2024/02/17 08:48:47;;;;;;;3.28;2.85;;;11.90;90.90;;;;;;4982544;28;20149;-64
2024/02/17 08:51:13;;;;;;;3.20;2.90;;;12.00;90.90;;;;;;4986611;28;20026;-63
2024/02/17 08:53:38;;;;;;;3.28;2.75;;;12.00;91.20;;;;;;4983136;28;20054;-63
2024/02/17 08:56:04;;;;;;;3.38;3.08;;;11.90;90.90;;;;;;4985644;28;20041;-63
2024/02/17 08:58:30;;;;;;;2.95;2.75;;;12.00;91.00;;;;;;4981847;28;20027;-62
2024/02/17 09:00:57;;;;;;;3.40;3.10;;;12.00;91.00;;;;;;4981921;28;20035;-63
2024/02/17 09:03:23;;;;;;;2.80;2.55;;;12.00;91.00;;;;;;4980799;28;20522;-63
2024/02/17 09:05:49;;;;;;;3.08;2.78;;;12.10;91.00;;;;;;4979615;28;20057;-64
2024/02/17 09:08:14;;;;;;;4.22;3.05;;;12.10;90.90;;;;;;4982457;28;20037;-61
2024/02/17 09:10:40;;;;;;;3.38;3.08;;;12.10;90.90;;;;;;4981950;28;20430;-63
2024/02/17 09:13:05;;;;;;;3.25;2.95;;;12.20;90.90;;;;;;4980588;28;20061;-61
2024/02/17 09:15:31;;;;;;;3.15;2.95;;;12.20;90.80;;;;;;4981062;28;20042;-62
2024/02/17 09:17:57;;;;;;;4.28;3.38;;;12.20;90.80;;;;;;4979450;28;20053;-61
2024/02/17 09:20:22;;;;;;;3.97;3.58;;;12.30;91.10;;;;;;4975456;28;20161;-63
2024/02/17 09:22:48;;;;;;;4.35;3.95;;;12.30;90.80;;;;;;4973728;28;20112;-63
2024/02/17 09:25:14;;;;;;;4.28;3.88;;;12.40;90.70;;;;;;4983641;28;20040;-64
2024/02/17 09:27:40;;;;;;;4.15;3.75;;;12.40;90.70;;;;;;4975389;28;20037;-63
2024/02/17 09:30:06;;;;;;;4.30;3.90;;;12.40;90.70;;;;;;4979063;28;20402;-62
2024/02/17 09:32:32;;;;;;;5.60;4.03;;;12.40;90.60;;;;;;4980154;28;20031;-64
2024/02/17 09:34:57;;;;;;;4.30;3.90;;;12.50;90.60;;;;;;4980191;28;20112;-63
2024/02/17 09:37:23;;;;;;;4.30;3.90;;;12.50;90.50;;;;;;4973178;28;20047;-62
2024/02/17 09:39:49;;;;;;;3.97;3.63;;;12.50;90.30;;;;;;4971675;28;20630;-63
2024/02/17 09:42:14;;;;;;;4.35;3.78;;;12.60;90.20;;;;;;4979079;28;20038;-62
2024/02/17 09:44:41;;;;;;;4.00;3.60;;;12.50;90.10;;;;;;4973147;28;20031;-64
2024/02/17 09:47:07;;;;;;;4.07;3.60;;;12.50;90.00;;;;;;4976975;28;20058;-63
2024/02/17 09:49:36;;;;;;;4.95;3.58;;;12.50;89.90;;;;;;4983077;28;20346;-63
2024/02/17 09:52:02;;;;;;;5.15;3.97;;;12.50;90.00;;;;;;4982068;28;20034;-62
2024/02/17 09:54:28;;;;;;;4.25;3.85;;;12.50;90.00;;;;;;4983257;28;20038;-62
2024/02/17 09:56:54;;;;;;;7.05;3.72;;;12.50;90.00;;;;;;4976641;28;20050;-63
2024/02/17 09:59:20;;;;;;;5.72;4.10;;;12.50;90.10;;;;;;4985219;28;20027;-62
2024/02/17 10:01:48;;;;;;;4.38;3.90;;;12.50;90.10;;;;;;4982261;28;20039;-63
2024/02/17 10:04:13;;;;;;;5.25;4.03;;;12.50;90.00;;;;;;4984960;28;20054;-62
2024/02/17 10:06:40;;;;;;;4.13;3.45;;;12.50;89.80;;;;;;4985458;28;20066;-63
2024/02/17 10:09:06;;;;;;;3.78;3.47;;;12.50;89.90;;;;;;4986275;28;20039;-63
2024/02/17 10:11:32;;;;;;;4.63;3.60;;;12.40;89.90;;;;;;4984909;28;20030;-63
2024/02/17 10:13:58;;;;;;;3.97;3.58;;;12.40;90.00;;;;;;4983649;28;20457;-63
2024/02/17 10:16:24;;;;;;;5.45;3.70;;;12.40;89.90;;;;;;4982801;28;20510;-63
2024/02/17 10:18:50;;;;;;;5.95;3.97;;;12.40;90.00;;;;;;4981265;28;20038;-61
2024/02/17 10:21:16;;;;;;;4.30;3.90;;;12.40;90.00;;;;;;4986106;28;20037;-61
2024/02/17 10:23:41;;;;;;;4.72;3.80;;;12.40;90.00;;;;;;4985200;28;20034;-63
2024/02/17 10:26:07;;;;;;;4.07;3.67;;;12.40;90.00;;;;;;4981032;28;20038;-63
2024/02/17 10:28:33;;;;;;;5.55;4.40;;;12.40;90.10;;;;;;4981967;28;20042;-63
2024/02/17 10:31:02;;;;;;;5.57;4.13;;;12.40;90.20;;;;;;4984509;28;20052;-63
2024/02/17 10:33:28;;;;;;;5.20;4.47;;;12.40;90.20;;;;;;4984930;28;20038;-61
2024/02/17 10:35:57;;;;;;;4.75;4.25;;;12.50;90.20;;;;;;4985861;28;20057;-63
2024/02/17 10:38:24;;;;;;;4.93;4.40;;;12.50;90.60;;;;;;4986792;28;20066;-63
2024/02/17 10:40:51;;;;;;;5.43;4.53;;;12.50;90.10;;;;;;4986944;28;20039;-64
2024/02/17 10:43:17;;;;;;;4.82;4.25;;;12.50;90.00;;;;;;4982832;28;20041;-63
2024/02/17 10:45:43;;;;;;;7.57;4.97;;;12.50;90.00;;;;;;4976630;28;20034;-63
2024/02/17 10:48:10;;;;;;;9.52;6.10;;;12.60;90.10;;;;;;4983825;28;20045;-62
2024/02/17 10:50:44;;;;;;;7.57;5.97;;;12.60;90.10;;;;;;4983971;28;20121;-62
2024/02/17 10:53:34;;;;;;;8.90;5.93;;;12.50;90.10;;;;;;4984760;28;23232;-62
2024/02/17 10:56:01;;;;;;;10.30;6.57;;;12.60;90.10;;;;;;4984870;28;20542;-63
2024/02/17 10:58:28;;;;;;;12.10;7.28;;;12.60;90.10;;;;;;4980598;28;20501;-62
2024/02/17 11:00:54;;;;;;;10.02;7.07;;;12.60;90.10;;;;;;4984350;28;20034;-62
2024/02/17 11:03:33;;;;;;;9.40;7.07;;;12.60;90.10;;;;;;4984716;28;20289;-62
2024/02/17 11:06:03;;;;;;;8.98;6.30;;;12.70;90.30;;;;;;4983183;28;20164;-62
2024/02/17 11:08:30;;;;;;;9.13;7.05;;;12.70;90.20;;;;;;4985549;28;20125;-63
2024/02/17 11:10:56;;;;;;;9.70;7.28;;;12.70;90.10;;;;;;4983012;28;20372;-62
2024/02/17 11:13:22;;;;;;;12.00;7.78;;;12.80;90.00;;;;;;4986740;28;20091;-63
2024/02/17 11:16:05;;;;;;;12.02;8.27;;;12.90;89.60;;;;;;4979556;28;20129;-63
2024/02/17 11:18:32;;;;;;;9.82;7.60;;;12.90;88.60;;;;;;4990383;28;20494;-62
2024/02/17 11:20:58;;;;;;;11.23;8.30;;;12.90;88.50;;;;;;4987845;28;20069;-62
2024/02/17 11:23:32;;;;;;;8.95;7.55;;;13.00;88.40;;;;;;4988140;28;20495;-62
2024/02/17 11:25:59;;;;;;;10.20;8.35;;;13.00;88.00;;;;;;4987013;28;20080;-61
2024/02/17 11:28:24;;;;;;;11.27;8.05;;;13.00;88.20;;;;;;4984140;28;20035;-63
2024/02/17 11:30:56;;;;;;;10.30;8.32;;;13.00;88.10;;;;;;4980287;28;20407;-64
2024/02/17 11:33:32;;;;;;;11.63;8.35;;;13.00;87.40;;;;;;4986298;28;20042;-63
2024/02/17 11:36:01;;;;;;;10.45;8.30;;;13.00;87.50;;;;;;4990375;28;20038;-63
2024/02/17 11:38:28;;;;;;;10.05;7.80;;;13.00;87.60;;;;;;4992873;28;20092;-64
2024/02/17 11:40:56;;;;;;;8.50;7.60;;;13.10;87.30;;;;;;4987712;28;20030;-63
2024/02/17 11:43:49;;;;;;;10.15;7.70;;;13.10;86.90;;;;;;4982172;28;20023;-62
2024/02/17 11:46:18;;;;;;;8.68;7.20;;;13.10;83.60;;;;;;4983454;28;20070;-62
2024/02/17 11:48:44;;;;;;;9.25;7.45;;;13.20;85.00;;;;;;4980305;28;20039;-63
2024/02/17 11:51:13;;;;;;;8.05;7.22;;;13.20;84.60;;;;;;4982091;28;20095;-62
2024/02/17 11:53:40;;;;;;;9.75;7.72;;;13.20;83.70;;;;;;4980786;28;20047;-63
2024/02/17 11:56:10;;;;;;;9.80;7.32;;;13.20;83.60;;;;;;4984195;28;20240;-63
2024/02/17 11:58:36;;;;;;;8.98;7.53;;;13.20;83.90;;;;;;4982332;28;20514;-63
2024/02/17 12:01:03;;;;;;;9.70;7.55;;;13.30;83.40;;;;;;4981979;28;20042;-63
2024/02/17 12:03:29;;;;;;;8.98;7.05;;;13.30;82.40;;;;;;4982838;28;20031;-61
2024/02/17 12:06:00;;;;;;;8.55;7.55;;;13.40;82.40;;;;;;4980027;28;20042;-63
2024/02/17 12:08:27;;;;;;;8.63;6.95;;;13.40;81.10;;;;;;4988296;28;20034;-62
2024/02/17 12:10:53;;;;;;;8.07;6.70;;;13.40;81.30;;;;;;4978274;28;20118;-63
2024/02/17 12:13:19;;;;;;;7.45;6.65;;;13.40;80.50;;;;;;4986469;28;20109;-64
2024/02/17 12:15:45;;;;;;;7.50;6.32;;;13.40;79.20;;;;;;4979801;28;20066;-63
2024/02/17 12:18:12;;;;;;;6.20;5.60;;;13.50;80.10;;;;;;4985825;28;20034;-63
2024/02/17 12:20:38;;;;;;;6.38;5.78;;;13.50;80.00;;;;;;4980405;28;20090;-63
2024/02/17 12:23:04;;;;;;;7.63;6.35;;;13.50;79.20;;;;;;4980139;28;20453;-64
2024/02/17 12:25:31;;;;;;;7.95;6.38;;;13.50;77.40;;;;;;4977580;28;20039;-64
2024/02/17 12:27:57;;;;;;;6.47;5.60;;;13.50;78.00;;;;;;4981983;28;20122;-64
2024/02/17 12:30:24;;;;;;;6.82;5.80;;;13.50;78.20;;;;;;4982179;28;20113;-63
2024/02/17 12:33:06;;;;;;;7.63;6.75;;;13.60;78.00;;;;;;4978652;28;20038;-60
2024/02/17 12:35:32;;;;;;;8.02;7.00;;;13.60;77.00;;;;;;4981819;28;20665;-64
2024/02/17 12:37:58;;;;;;;8.38;7.47;;;13.70;78.30;;;;;;4983062;28;20691;-63
2024/02/17 12:40:24;;;;;;;9.18;7.35;;;13.70;78.20;;;;;;4984660;28;20113;-63
2024/02/17 12:42:51;;;;;;;7.63;6.82;;;13.80;78.10;;;;;;4981300;28;20077;-61
2024/02/17 12:45:26;;;;;;;8.38;7.35;;;13.80;77.90;;;;;;4985578;28;20130;-63